FBD727 UGTB-UWLL
Flight info
| Callsign | FBD727 |
|---|---|
| Flight time | N/A |
| Altitude | 39998 |
| Route | K0902F430 LAPTO1E LAPTO N82 NIRGA R807 UROBO P135 DAFOS T789 NEPNI NEPNI1E |
| Aircraft | C700/M-SBDGHM1RWXY/LB2 |
Departure
| Time | N/A |
|---|---|
| Airport | Tbilisi International Airport (UGTB) |
Arrival
| Time | 2026-04-30 18:23 |
|---|---|
| Airport | Ulyanovsk Baratayevka Airport (UWLL) |
| Time | Latitude | Longitude | Altitude | Speed | Heading |
|---|---|---|---|---|---|
| 2026-04-30 17:39 | 49.35110 | 45.00179 | 41161 ft | 487 kts | 12° |
| 2026-04-30 17:42 | 49.67716 | 45.14227 | 41152 ft | 488 kts | 12° |
| 2026-04-30 17:43 | 49.84014 | 45.21359 | 41145 ft | 490 kts | 13° |
| 2026-04-30 17:44 | 50.03817 | 45.29912 | 41142 ft | 504 kts | 9° |
| 2026-04-30 17:47 | 50.35011 | 45.40524 | 41131 ft | 511 kts | 9° |
| 2026-04-30 17:48 | 50.59244 | 45.48884 | 41128 ft | 507 kts | 10° |
| 2026-04-30 17:50 | 50.86934 | 45.58616 | 41120 ft | 508 kts | 11° |
| 2026-04-30 17:52 | 51.07322 | 45.67559 | 41115 ft | 516 kts | 24° |
| 2026-04-30 17:54 | 51.36151 | 45.89278 | 41106 ft | 484 kts | 24° |
| 2026-04-30 17:56 | 51.60600 | 46.08183 | 41096 ft | 487 kts | 26° |
| 2026-04-30 17:58 | 51.78833 | 46.23205 | 41101 ft | 489 kts | 26° |
| 2026-04-30 18:00 | 52.03068 | 46.43426 | 41094 ft | 493 kts | 26° |
| 2026-04-30 18:01 | 52.18223 | 46.56196 | 40955 ft | 492 kts | 26° |
| 2026-04-30 18:02 | 52.27364 | 46.63952 | 39047 ft | 494 kts | 27° |
| 2026-04-30 18:02 | 52.36432 | 46.71681 | 37046 ft | 484 kts | 27° |
| 2026-04-30 18:03 | 52.45472 | 46.79420 | 35123 ft | 498 kts | 27° |
| 2026-04-30 18:04 | 52.54716 | 46.87371 | 33087 ft | 497 kts | 27° |
| 2026-04-30 18:05 | 52.66915 | 46.97920 | 30479 ft | 500 kts | 28° |
| 2026-04-30 18:06 | 52.79120 | 47.08542 | 27805 ft | 484 kts | 29° |
| 2026-04-30 18:07 | 52.90868 | 47.18836 | 25287 ft | 470 kts | 29° |
| 2026-04-30 18:08 | 52.99400 | 47.26353 | 23425 ft | 456 kts | 30° |
| 2026-04-30 18:09 | 53.10320 | 47.36023 | 21057 ft | 440 kts | 30° |
| 2026-04-30 18:10 | 53.20902 | 47.45446 | 18784 ft | 423 kts | 29° |
| 2026-04-30 18:11 | 53.31076 | 47.54555 | 16552 ft | 406 kts | 29° |
| 2026-04-30 18:11 | 53.38443 | 47.61181 | 14962 ft | 395 kts | 28° |
| 2026-04-30 18:12 | 53.45565 | 47.67609 | 13400 ft | 380 kts | 28° |
| 2026-04-30 18:13 | 53.50299 | 47.71284 | 12408 ft | 372 kts | 20° |
| 2026-04-30 18:13 | 53.56682 | 47.75526 | 11104 ft | 367 kts | 22° |
| 2026-04-30 18:14 | 53.62188 | 47.79149 | 10104 ft | 367 kts | 23° |
| 2026-04-30 18:15 | 53.69564 | 47.84056 | 10105 ft | 383 kts | 22° |
| 2026-04-30 18:15 | 53.76785 | 47.89712 | 10073 ft | 380 kts | 44° |
| 2026-04-30 18:16 | 53.81022 | 47.94987 | 10087 ft | 384 kts | 26° |
| 2026-04-30 18:16 | 53.86092 | 47.97837 | 10089 ft | 385 kts | 14° |
| 2026-04-30 18:17 | 53.88498 | 47.98821 | 10090 ft | 384 kts | 13° |
| 2026-04-30 18:17 | 53.90255 | 47.99509 | 10094 ft | 384 kts | 13° |
| 2026-04-30 18:17 | 53.95928 | 48.01690 | 8713 ft | 314 kts | 13° |
| 2026-04-30 18:18 | 53.97953 | 48.02457 | 8019 ft | 284 kts | 13° |
| 2026-04-30 18:18 | 53.99876 | 48.03178 | 7604 ft | 279 kts | 13° |
| 2026-04-30 18:18 | 54.01158 | 48.03655 | 7330 ft | 277 kts | 13° |
| 2026-04-30 18:18 | 54.02998 | 48.04340 | 6934 ft | 264 kts | 13° |
| 2026-04-30 18:19 | 54.04781 | 48.04995 | 6541 ft | 261 kts | 13° |
| 2026-04-30 18:19 | 54.06519 | 48.05627 | 6138 ft | 257 kts | 13° |
| 2026-04-30 18:19 | 54.08255 | 48.06257 | 5729 ft | 253 kts | 13° |
| 2026-04-30 18:19 | 54.09972 | 48.06879 | 5331 ft | 251 kts | 13° |
| 2026-04-30 18:20 | 54.11671 | 48.07521 | 4892 ft | 249 kts | 14° |
| 2026-04-30 18:20 | 54.13364 | 48.08240 | 4097 ft | 248 kts | 15° |
| 2026-04-30 18:20 | 54.14995 | 48.09026 | 3317 ft | 240 kts | 22° |
| 2026-04-30 18:20 | 54.16455 | 48.10341 | 2531 ft | 235 kts | 31° |
| 2026-04-30 18:21 | 54.17820 | 48.11757 | 2203 ft | 223 kts | 32° |
| 2026-04-30 18:21 | 54.19157 | 48.13157 | 2201 ft | 220 kts | 32° |
| 2026-04-30 18:21 | 54.20391 | 48.14462 | 2196 ft | 198 kts | 33° |
| 2026-04-30 18:21 | 54.21472 | 48.15911 | 1915 ft | 200 kts | 41° |
| 2026-04-30 18:22 | 54.22489 | 48.17401 | 1266 ft | 187 kts | 39° |
| 2026-04-30 18:22 | 54.24408 | 48.19712 | 838 ft | 159 kts | 33° |
| 2026-04-30 18:22 | 54.25363 | 48.20748 | 635 ft | 164 kts | 32° |
| 2026-04-30 18:23 | 54.26309 | 48.21768 | 437 ft | 153 kts | 32° |
| 2026-04-30 18:23 | 54.27006 | 48.22542 | 418 ft | 94 kts | 32° |
| 2026-04-30 18:23 | 54.27479 | 48.23053 | 406 ft | 74 kts | 32° |
| 2026-04-30 18:23 | 54.27646 | 48.23275 | 400 ft | 8 kts | 69° |
| 2026-04-30 18:24 | 54.27667 | 48.23511 | 394 ft | 0 kts | 76° |
| 2026-04-30 18:25 | 54.27674 | 48.23582 | 392 ft | 12 kts | 76° |
| 2026-04-30 18:25 | 54.27727 | 48.23760 | 388 ft | 21 kts | 40° |
| 2026-04-30 18:26 | 54.28021 | 48.24070 | 382 ft | 29 kts | 32° |
| 2026-04-30 18:26 | 54.28157 | 48.24193 | 379 ft | 15 kts | 353° |
| 2026-04-30 18:26 | 54.28217 | 48.24090 | 382 ft | 0 kts | 301° |
| 2026-04-30 18:28 | 54.28385 | 48.23632 | 379 ft | 26 kts | 302° |
| 2026-04-30 18:29 | 54.28484 | 48.23354 | 364 ft | 23 kts | 298° |
| 2026-04-30 18:29 | 54.28525 | 48.23223 | 361 ft | 0 kts | 302° |
| 2026-04-30 18:30 | 54.28555 | 48.23241 | 358 ft | 5 kts | 43° |
| 2026-04-30 18:30 | 54.28541 | 48.23320 | 364 ft | 0 kts | 123° |